createdAt,value
2023-01-04T00:00:45.220Z,7.60
2023-01-04T00:02:47.295Z,7.25
2023-01-04T00:04:49.284Z,7.43
2023-01-04T00:06:51.178Z,6.95
2023-01-04T00:08:54.228Z,7.45
2023-01-04T00:11:04.503Z,7.15
2023-01-04T00:13:06.363Z,7.65
2023-01-04T00:15:08.812Z,7.03
2023-01-04T00:17:10.660Z,7.75
2023-01-04T00:19:13.291Z,6.97
2023-01-04T00:21:21.903Z,7.70
2023-01-04T00:23:23.806Z,7.20
2023-01-04T00:25:26.037Z,7.85
2023-01-04T00:27:28.077Z,7.10
2023-01-04T00:29:29.968Z,7.20
2023-01-04T00:31:32.175Z,7.22
2023-01-04T00:33:34.337Z,7.47
2023-01-04T00:35:45.807Z,7.45
2023-01-04T00:37:51.858Z,8.18
2023-01-04T00:39:54.116Z,7.60
2023-01-04T00:42:05.420Z,7.38
2023-01-04T00:44:10.542Z,7.45
2023-01-04T00:46:12.729Z,7.35
2023-01-04T00:48:14.679Z,7.57
2023-01-04T00:50:16.716Z,6.88
2023-01-04T00:52:18.683Z,7.88
2023-01-04T00:54:21.683Z,8.10
2023-01-04T00:56:23.761Z,6.80
2023-01-04T00:58:25.618Z,7.07
2023-01-04T01:00:27.536Z,6.65
2023-01-04T01:02:29.850Z,7.25
2023-01-04T01:04:31.957Z,7.75
2023-01-04T01:06:35.284Z,7.75
2023-01-04T01:08:37.632Z,7.65
2023-01-04T01:10:39.540Z,6.95
2023-01-04T01:12:42.527Z,7.60
2023-01-04T01:14:45.511Z,8.52
2023-01-04T01:16:57.707Z,7.60
2023-01-04T01:19:00.893Z,7.22
2023-01-04T01:21:14.082Z,7.20
2023-01-04T01:23:15.969Z,7.13
2023-01-04T01:25:17.953Z,7.13
2023-01-04T01:27:19.792Z,7.63
2023-01-04T01:29:21.812Z,7.57
2023-01-04T01:31:27.563Z,6.95
2023-01-04T01:33:30.517Z,6.93
2023-01-04T01:35:33.718Z,7.53
2023-01-04T01:37:35.561Z,7.40
2023-01-04T01:39:37.420Z,7.07
2023-01-04T01:41:39.628Z,7.07
2023-01-04T01:43:56.768Z,6.82
2023-01-04T01:45:58.771Z,7.20
2023-01-04T01:48:07.403Z,7.68
2023-01-04T01:50:39.963Z,7.60
2023-01-04T01:52:41.868Z,6.93
2023-01-04T01:54:47.878Z,7.55
2023-01-04T01:56:51.999Z,7.45
2023-01-04T01:58:56.068Z,6.65
2023-01-04T02:00:58.561Z,7.00
2023-01-04T02:03:18.988Z,6.70
2023-01-04T02:05:21.660Z,6.78
2023-01-04T02:07:28.871Z,7.15
2023-01-04T02:09:32.607Z,6.75
2023-01-04T02:11:34.530Z,6.40
2023-01-04T02:13:57.873Z,6.95
2023-01-04T02:16:23.219Z,6.40
2023-01-04T02:18:30.848Z,6.93
2023-01-04T02:20:47.763Z,6.35
2023-01-04T02:23:38.797Z,6.40
2023-01-04T02:25:58.546Z,6.93
2023-01-04T02:28:18.952Z,7.00
2023-01-04T02:30:33.248Z,6.97
2023-01-04T02:33:03.075Z,6.65
2023-01-04T02:35:14.207Z,7.35
2023-01-04T02:37:31.323Z,7.18
2023-01-04T02:39:43.813Z,7.60
2023-01-04T02:41:56.616Z,7.30
2023-01-04T02:44:28.965Z,6.97
2023-01-04T02:46:35.611Z,6.90
2023-01-04T02:48:58.672Z,7.25
2023-01-04T02:51:01.242Z,7.53
2023-01-04T02:53:11.331Z,7.13
2023-01-04T02:55:13.213Z,7.60
2023-01-04T02:57:42.724Z,7.70
2023-01-04T03:00:03.740Z,7.07
2023-01-04T03:02:30.271Z,7.90
2023-01-04T03:05:06.939Z,7.78
2023-01-04T03:07:32.092Z,7.60
2023-01-04T03:09:41.380Z,8.20
2023-01-04T03:12:27.986Z,7.75
2023-01-04T03:14:38.952Z,7.60
2023-01-04T03:16:44.229Z,7.47
2023-01-04T03:18:51.260Z,7.65
2023-01-04T03:20:55.780Z,7.78
2023-01-04T03:23:27.474Z,7.85
2023-01-04T03:25:58.398Z,8.40
2023-01-04T03:28:19.756Z,7.75
2023-01-04T03:30:46.219Z,7.50
2023-01-04T03:33:15.035Z,7.63
2023-01-04T03:35:28.360Z,7.40
2023-01-04T03:38:13.050Z,7.80
2023-01-04T03:40:45.887Z,7.57
2023-01-04T03:43:26.749Z,7.93
2023-01-04T03:45:52.657Z,8.15
2023-01-04T03:48:21.902Z,7.75
2023-01-04T03:50:31.954Z,7.75
2023-01-04T03:52:35.974Z,7.85
2023-01-04T03:54:41.645Z,8.10
2023-01-04T03:56:45.316Z,7.55
2023-01-04T03:58:47.223Z,8.00
2023-01-04T04:00:49.280Z,7.95
2023-01-04T04:02:51.240Z,7.78
2023-01-04T04:05:11.650Z,7.70
2023-01-04T04:07:32.323Z,8.38
2023-01-04T04:09:34.296Z,7.43
2023-01-04T04:11:36.104Z,8.25
2023-01-04T04:13:37.968Z,8.65
2023-01-04T04:15:40.273Z,8.43
2023-01-04T04:17:42.130Z,8.75
2023-01-04T04:19:44.040Z,8.65
2023-01-04T04:21:45.923Z,9.05
2023-01-04T04:23:48.209Z,8.80
2023-01-04T04:25:50.049Z,9.02
2023-01-04T04:27:53.014Z,9.55
2023-01-04T04:29:54.992Z,9.00
2023-01-04T04:31:56.917Z,8.80
2023-01-04T04:33:58.928Z,8.77
2023-01-04T04:36:00.823Z,9.32
2023-01-04T04:38:02.651Z,9.32
2023-01-04T04:40:07.170Z,9.80
2023-01-04T04:42:10.061Z,9.30
2023-01-04T04:44:15.249Z,9.63
2023-01-04T04:46:17.287Z,8.98
2023-01-04T04:48:19.200Z,8.85
2023-01-04T04:50:21.146Z,9.20
2023-01-04T04:52:23.619Z,8.32
2023-01-04T04:54:25.569Z,9.23
2023-01-04T04:56:28.698Z,8.68
2023-01-04T04:58:31.750Z,8.57
2023-01-04T05:00:33.897Z,8.30
2023-01-04T05:02:35.829Z,8.80
2023-01-04T05:04:37.803Z,8.20
2023-01-04T05:06:40.680Z,8.95
2023-01-04T05:08:42.639Z,9.88
2023-01-04T05:10:45.600Z,10.07
2023-01-04T05:13:02.658Z,9.32
2023-01-04T05:15:04.968Z,8.73
2023-01-04T05:17:06.999Z,8.73
2023-01-04T05:19:08.940Z,8.43
2023-01-04T05:21:12.794Z,9.25
2023-01-04T05:23:18.331Z,10.23
2023-01-04T05:25:20.307Z,9.68
2023-01-04T05:27:25.155Z,9.82
2023-01-04T05:29:45.836Z,9.25
2023-01-04T05:31:48.105Z,10.55
2023-01-04T05:33:50.039Z,11.45
2023-01-04T05:35:52.919Z,10.02
2023-01-04T05:37:54.855Z,9.50
2023-01-04T05:39:56.824Z,10.18
2023-01-04T05:42:17.135Z,9.10
2023-01-04T05:44:18.983Z,8.88
2023-01-04T05:46:20.848Z,9.20
2023-01-04T05:48:24.854Z,9.88
2023-01-04T05:50:26.716Z,9.23
2023-01-04T05:52:28.905Z,10.00
2023-01-04T05:54:30.840Z,8.60
2023-01-04T05:56:33.502Z,10.20
2023-01-04T05:58:35.378Z,10.68
2023-01-04T06:00:37.294Z,10.57
2023-01-04T06:02:39.449Z,11.07
2023-01-04T06:04:41.447Z,10.70
2023-01-04T06:06:43.470Z,11.75
2023-01-04T06:08:45.348Z,11.07
2023-01-04T06:10:53.593Z,10.80
2023-01-04T06:12:55.590Z,12.25
2023-01-04T06:14:57.442Z,41.33
2023-01-04T06:17:00.004Z,43.55
2023-01-04T06:19:02.757Z,18.35
2023-01-04T06:21:04.683Z,21.90
2023-01-04T06:23:06.554Z,21.10
2023-01-04T06:25:09.815Z,20.10
2023-01-04T06:27:11.800Z,18.83
2023-01-04T06:29:14.256Z,17.20
2023-01-04T06:31:16.182Z,18.48
2023-01-04T06:33:18.276Z,15.57
2023-01-04T06:35:20.195Z,16.52
2023-01-04T06:37:24.313Z,16.98
2023-01-04T06:39:26.294Z,17.15
2023-01-04T06:41:28.315Z,19.08
2023-01-04T06:43:30.402Z,19.08
2023-01-04T06:45:32.369Z,16.02
2023-01-04T06:47:35.401Z,17.58
2023-01-04T06:49:39.357Z,15.82
2023-01-04T06:51:42.312Z,15.73
2023-01-04T06:53:44.334Z,15.57
2023-01-04T06:55:46.306Z,16.33
2023-01-04T06:57:48.219Z,15.70
2023-01-04T06:59:50.276Z,16.30
2023-01-04T07:01:52.345Z,16.30
2023-01-04T07:03:54.419Z,15.75
2023-01-04T07:05:56.433Z,15.88
2023-01-04T07:08:07.993Z,16.02
2023-01-04T07:10:10.525Z,17.13
2023-01-04T07:12:13.484Z,17.42
2023-01-04T07:14:15.448Z,16.23
2023-01-04T07:16:17.516Z,16.50
2023-01-04T07:18:20.473Z,16.83
2023-01-04T07:20:22.410Z,18.73
2023-01-04T07:22:24.330Z,18.77
2023-01-04T07:24:30.291Z,20.33
2023-01-04T07:26:33.482Z,18.17
2023-01-04T07:28:53.994Z,17.73
2023-01-04T07:30:55.942Z,20.35
2023-01-04T07:32:58.376Z,19.55
2023-01-04T07:35:01.394Z,19.27
2023-01-04T07:37:03.819Z,17.40
2023-01-04T07:39:05.918Z,16.23
2023-01-04T07:41:07.976Z,16.10
2023-01-04T07:43:09.912Z,15.85
2023-01-04T07:45:12.097Z,14.88
2023-01-04T07:47:14.054Z,15.30
2023-01-04T07:49:18.704Z,16.67
2023-01-04T07:51:20.769Z,17.90
2023-01-04T07:53:22.752Z,17.42
2023-01-04T07:55:24.691Z,17.27
2023-01-04T07:57:26.629Z,16.60
2023-01-04T07:59:28.704Z,16.90
2023-01-04T08:01:30.759Z,17.15
2023-01-04T08:03:32.853Z,18.17
2023-01-04T08:05:35.234Z,17.48
2023-01-04T08:07:37.089Z,17.80
2023-01-04T08:09:39.031Z,17.90
2023-01-04T08:11:41.438Z,16.38
2023-01-04T08:13:44.060Z,16.80
2023-01-04T08:15:53.166Z,15.73
2023-01-04T08:17:56.558Z,16.40
2023-01-04T08:19:58.787Z,15.50
2023-01-04T08:22:00.703Z,14.93
2023-01-04T08:24:04.184Z,14.18
2023-01-04T08:26:11.187Z,14.23
2023-01-04T08:28:13.122Z,14.55
2023-01-04T08:30:15.117Z,13.63
2023-01-04T08:32:17.100Z,13.23
2023-01-04T08:34:20.013Z,14.65
2023-01-04T08:36:27.991Z,13.70
2023-01-04T08:38:58.900Z,13.70
2023-01-04T08:40:58.871Z,15.60
2023-01-04T08:43:05.770Z,13.50
2023-01-04T08:45:08.943Z,14.13
2023-01-04T08:47:10.932Z,13.75
2023-01-04T08:49:12.934Z,13.98
2023-01-04T08:51:16.721Z,13.98
2023-01-04T08:53:18.640Z,14.60
2023-01-04T08:55:23.439Z,14.18
2023-01-04T08:57:25.844Z,15.57
2023-01-04T08:59:27.837Z,14.13
2023-01-04T09:01:30.280Z,14.88
2023-01-04T09:03:32.811Z,14.35
2023-01-04T09:05:34.751Z,14.35
2023-01-04T09:07:36.695Z,11.93
2023-01-04T09:09:38.645Z,13.18
2023-01-04T09:11:40.616Z,12.90
2023-01-04T09:13:43.507Z,13.00
2023-01-04T09:15:45.504Z,13.07
2023-01-04T09:18:20.509Z,12.82
2023-01-04T09:20:12.543Z,11.82
2023-01-04T09:22:14.666Z,12.02
2023-01-04T09:24:16.787Z,12.13
2023-01-04T09:26:22.533Z,12.05
2023-01-04T09:28:24.487Z,11.98
2023-01-04T09:30:26.486Z,13.18
2023-01-04T09:32:30.022Z,11.77
2023-01-04T09:34:31.948Z,11.90
2023-01-04T09:36:33.932Z,13.07
2023-01-04T09:38:36.285Z,11.48
2023-01-04T09:41:13.524Z,11.07
2023-01-04T09:43:21.909Z,11.73
2023-01-04T09:45:27.972Z,11.40
2023-01-04T09:48:07.708Z,11.77
2023-01-04T09:50:24.997Z,10.02
2023-01-04T09:52:55.461Z,10.57
2023-01-04T09:55:05.091Z,10.40
2023-01-04T09:57:51.548Z,10.02
2023-01-04T10:00:01.406Z,10.00
2023-01-04T10:02:18.201Z,9.68
2023-01-04T10:04:36.586Z,8.93
2023-01-04T10:06:39.103Z,10.45
2023-01-04T10:08:43.431Z,9.82
2023-01-04T10:10:56.672Z,8.60
2023-01-04T10:13:26.783Z,10.20
2023-01-04T10:15:37.299Z,9.65
2023-01-04T10:21:31.461Z,9.50
2023-01-04T10:23:51.909Z,9.40
2023-01-04T10:25:58.082Z,10.38
2023-01-04T10:28:10.758Z,10.05
2023-01-04T10:30:44.361Z,9.63
2023-01-04T10:32:50.614Z,9.40
2023-01-04T10:34:53.860Z,8.77
2023-01-04T10:37:04.329Z,8.65
2023-01-04T10:39:18.758Z,8.80
2023-01-04T10:41:26.981Z,8.73
2023-01-04T10:44:14.402Z,8.18
2023-01-04T10:46:25.131Z,8.50
2023-01-04T10:48:51.651Z,7.78
2023-01-04T10:51:09.692Z,8.27
2023-01-04T10:53:23.801Z,7.68
2023-01-04T10:55:31.632Z,7.65
2023-01-04T10:57:55.129Z,10.13
2023-01-04T11:00:07.560Z,8.63
2023-01-04T11:02:30.513Z,8.00
2023-01-04T11:04:49.982Z,8.50
2023-01-04T11:07:11.186Z,8.23
2023-01-04T11:09:25.567Z,7.20
2023-01-04T11:11:36.273Z,8.18
2023-01-04T11:13:39.339Z,9.27
2023-01-04T11:15:42.990Z,7.82
2023-01-04T11:17:45.973Z,8.40
2023-01-04T11:19:48.237Z,7.38
2023-01-04T11:21:58.611Z,7.75
2023-01-04T11:24:30.161Z,8.00
2023-01-04T11:26:39.609Z,7.97
2023-01-04T11:28:57.832Z,7.68
2023-01-04T11:31:09.723Z,8.68
2023-01-04T11:33:16.438Z,7.50
2023-01-04T11:35:52.579Z,6.55
2023-01-04T11:38:11.036Z,7.40
2023-01-04T11:40:19.130Z,6.90
2023-01-04T11:42:22.591Z,7.55
2023-01-04T11:44:26.167Z,7.30
2023-01-04T11:46:29.850Z,9.00
2023-01-04T11:48:43.498Z,7.53
2023-01-04T11:50:51.433Z,7.93
2023-01-04T11:52:53.408Z,8.07
2023-01-04T11:54:55.490Z,7.90
2023-01-04T11:56:59.300Z,7.93
2023-01-04T11:59:24.815Z,9.13
2023-01-04T12:01:27.131Z,10.27
2023-01-04T12:03:38.698Z,10.88
2023-01-04T12:05:40.909Z,11.45
2023-01-04T12:07:43.363Z,11.23
2023-01-04T12:09:46.362Z,11.57
2023-01-04T12:11:51.929Z,11.20
2023-01-04T12:13:53.919Z,11.05
2023-01-04T12:16:08.884Z,10.70
2023-01-04T12:18:22.914Z,10.40
2023-01-04T12:20:28.965Z,11.10
2023-01-04T12:22:41.230Z,12.30
2023-01-04T12:24:45.969Z,13.55
2023-01-04T12:26:49.525Z,12.02
2023-01-04T12:29:23.280Z,12.50
2023-01-04T12:31:25.897Z,11.30
2023-01-04T12:33:30.600Z,13.10
2023-01-04T12:36:02.654Z,12.43
2023-01-04T12:40:46.732Z,12.45
2023-01-04T12:43:15.911Z,12.90
2023-01-04T12:45:20.840Z,12.05
2023-01-04T12:47:47.472Z,11.43
2023-01-04T12:50:11.479Z,13.18
2023-01-04T12:52:34.337Z,13.35
2023-01-04T12:55:03.988Z,13.75
2023-01-04T12:57:22.880Z,13.02
2023-01-04T13:00:06.626Z,14.77
2023-01-04T13:02:15.804Z,13.90
2023-01-04T13:04:41.276Z,13.52
2023-01-04T13:06:46.133Z,13.48
2023-01-04T13:08:52.007Z,13.85
2023-01-04T13:10:57.400Z,13.02
2023-01-04T13:13:42.315Z,13.93
2023-01-04T13:16:12.146Z,13.45
2023-01-04T13:18:35.972Z,13.60
2023-01-04T13:20:39.544Z,13.32
2023-01-04T13:22:51.383Z,13.00
2023-01-04T13:24:54.117Z,13.30
2023-01-04T13:26:57.019Z,12.75
2023-01-04T13:29:18.567Z,12.90
2023-01-04T13:31:20.798Z,12.45
2023-01-04T13:33:27.292Z,12.02
2023-01-04T13:35:30.150Z,10.82
2023-01-04T13:37:36.335Z,10.82
2023-01-04T13:39:49.685Z,11.45
2023-01-04T13:41:53.094Z,11.00
2023-01-04T13:44:15.569Z,12.50
2023-01-04T13:46:24.232Z,12.55
2023-01-04T13:48:30.545Z,13.30
2023-01-04T13:50:44.372Z,11.77
2023-01-04T13:53:00.062Z,11.68
2023-01-04T13:55:21.068Z,11.70
2023-01-04T13:57:25.175Z,10.02
2023-01-04T13:59:27.418Z,10.07
2023-01-04T14:01:45.698Z,10.25
2023-01-04T14:03:52.176Z,9.68
2023-01-04T14:06:01.291Z,9.95
2023-01-04T14:08:17.475Z,10.52
2023-01-04T14:10:19.822Z,10.13
2023-01-04T14:12:27.654Z,11.70
2023-01-04T14:14:45.604Z,10.15
2023-01-04T14:16:48.367Z,11.13
2023-01-04T14:18:50.430Z,11.68
2023-01-04T14:20:52.512Z,11.70
2023-01-04T14:22:59.074Z,10.68
2023-01-04T14:25:20.341Z,10.57
2023-01-04T14:27:37.476Z,11.45
2023-01-04T14:29:40.631Z,11.73
2023-01-04T14:31:44.137Z,11.07
2023-01-04T14:33:49.465Z,11.05
2023-01-04T14:36:10.936Z,10.32
2023-01-04T14:38:19.276Z,9.65
2023-01-04T14:40:33.879Z,9.68
2023-01-04T14:42:35.883Z,9.68
2023-01-04T14:44:41.360Z,9.68
2023-01-04T14:46:47.340Z,10.40
2023-01-04T14:48:50.082Z,9.80
2023-01-04T14:50:54.066Z,10.63
2023-01-04T14:52:56.141Z,9.18
2023-01-04T14:54:59.495Z,9.48
2023-01-04T14:57:01.568Z,9.85
2023-01-04T14:59:04.019Z,9.85
2023-01-04T15:01:06.264Z,9.85
2023-01-04T15:03:09.955Z,9.15
2023-01-04T15:05:13.158Z,9.82
2023-01-04T15:07:47.542Z,9.73
2023-01-04T15:09:50.506Z,8.10
2023-01-04T15:11:53.594Z,9.77
2023-01-04T15:13:55.763Z,10.07
2023-01-04T15:15:58.448Z,9.82
2023-01-04T15:18:00.671Z,9.00
2023-01-04T15:20:04.906Z,8.98
2023-01-04T15:22:07.867Z,8.77
2023-01-04T15:24:10.864Z,8.75
2023-01-04T15:26:13.180Z,9.18
2023-01-04T15:28:16.842Z,9.15
2023-01-04T15:30:19.335Z,9.43
2023-01-04T15:32:21.305Z,9.23
2023-01-04T15:34:23.313Z,9.25
2023-01-04T15:36:25.649Z,8.77
2023-01-04T15:38:27.895Z,9.20
2023-01-04T15:40:29.862Z,10.15
2023-01-04T15:42:50.408Z,9.43
2023-01-04T15:44:52.330Z,8.80
2023-01-04T15:46:54.955Z,9.93
2023-01-04T15:48:57.005Z,10.13
2023-01-04T15:51:07.978Z,8.88
2023-01-04T15:53:10.520Z,8.48
2023-01-04T15:55:14.679Z,9.02
2023-01-04T15:57:16.867Z,8.38
2023-01-04T15:59:19.206Z,8.18
2023-01-04T16:01:23.551Z,8.38
2023-01-04T16:03:25.587Z,8.45
2023-01-04T16:05:27.655Z,8.60
2023-01-04T16:07:34.373Z,7.90
2023-01-04T16:09:38.491Z,8.15
2023-01-04T16:12:00.411Z,7.70
2023-01-04T16:14:02.741Z,6.70
2023-01-04T16:16:05.752Z,7.00
2023-01-04T16:18:07.727Z,7.75
2023-01-04T16:20:11.314Z,7.05
2023-01-04T16:22:13.424Z,7.07
2023-01-04T16:24:44.911Z,6.68
2023-01-04T16:26:38.040Z,6.40
2023-01-04T16:28:40.710Z,6.55
2023-01-04T16:30:44.832Z,6.72
2023-01-04T16:32:46.865Z,6.47
2023-01-04T16:34:51.120Z,6.93
2023-01-04T16:36:53.215Z,6.28
2023-01-04T16:38:55.326Z,6.50
2023-01-04T16:41:02.357Z,6.22
2023-01-04T16:43:04.391Z,6.32
2023-01-04T16:45:07.417Z,5.82
2023-01-04T16:47:10.473Z,5.85
2023-01-04T16:49:20.936Z,6.78
2023-01-04T16:51:26.303Z,5.57
2023-01-04T16:53:28.253Z,6.93
2023-01-04T16:55:31.279Z,6.28
2023-01-04T16:57:33.329Z,4.90
2023-01-04T16:59:36.361Z,5.40
2023-01-04T17:01:47.917Z,5.70
2023-01-04T17:03:56.958Z,5.43
2023-01-04T17:05:59.064Z,5.07
2023-01-04T17:08:02.112Z,5.70
2023-01-04T17:10:06.055Z,4.95
2023-01-04T17:14:31.174Z,5.53
2023-01-04T17:16:35.176Z,5.43
2023-01-04T17:18:38.029Z,5.75
2023-01-04T17:20:41.140Z,5.65
2023-01-04T17:22:43.185Z,6.28
2023-01-04T17:24:45.612Z,5.20
2023-01-04T17:26:50.132Z,5.35
2023-01-04T17:28:53.352Z,5.03
2023-01-04T17:30:58.904Z,5.30
2023-01-04T17:33:01.085Z,5.78
2023-01-04T17:35:03.636Z,5.85
2023-01-04T17:37:05.825Z,6.03
2023-01-04T17:39:08.830Z,5.00
2023-01-04T17:41:21.940Z,5.88
2023-01-04T17:43:23.939Z,5.20
2023-01-04T17:45:27.136Z,4.85
2023-01-04T17:47:30.260Z,5.35
2023-01-04T17:49:32.762Z,5.63
2023-01-04T17:51:38.865Z,5.13
2023-01-04T17:53:46.978Z,5.55
2023-01-04T17:55:49.312Z,5.18
2023-01-04T17:57:54.850Z,5.20
2023-01-04T17:59:57.279Z,4.60
2023-01-04T18:01:59.852Z,5.80
2023-01-04T18:04:04.940Z,5.30
2023-01-04T18:06:24.734Z,5.68
2023-01-04T18:08:27.675Z,3.95
2023-01-04T18:10:41.318Z,4.57
2023-01-04T18:12:55.091Z,4.97
2023-01-04T18:15:00.979Z,4.10
2023-01-04T18:17:06.761Z,5.03
2023-01-04T18:19:09.308Z,4.80
2023-01-04T18:21:29.439Z,4.60
2023-01-04T18:23:35.176Z,4.88
2023-01-04T18:25:38.233Z,4.20
2023-01-04T18:27:43.635Z,4.45
2023-01-04T18:29:49.592Z,4.20
2023-01-04T18:31:52.767Z,3.75
2023-01-04T18:33:57.582Z,4.70
2023-01-04T18:36:08.357Z,4.25
2023-01-04T18:38:17.067Z,4.50
2023-01-04T18:40:25.621Z,4.13
2023-01-04T18:42:30.146Z,3.58
2023-01-04T18:44:34.985Z,3.92
2023-01-04T18:46:38.157Z,4.28
2023-01-04T18:48:41.471Z,3.90
2023-01-04T18:50:44.070Z,3.85
2023-01-04T18:52:47.802Z,3.85
2023-01-04T18:54:51.714Z,4.20
2023-01-04T18:57:01.883Z,3.70
2023-01-04T18:59:04.798Z,3.80
2023-01-04T19:01:13.201Z,4.15
2023-01-04T19:03:18.705Z,3.50
2023-01-04T19:05:28.467Z,3.78
2023-01-04T19:07:36.878Z,3.13
2023-01-04T19:09:45.199Z,3.40
2023-01-04T19:11:48.471Z,3.58
2023-01-04T19:13:54.436Z,3.47
2023-01-04T19:15:57.769Z,3.50
2023-01-04T19:18:00.264Z,3.28
2023-01-04T19:20:05.366Z,3.60
2023-01-04T19:22:10.092Z,3.70
2023-01-04T19:24:17.042Z,3.65
2023-01-04T19:26:20.273Z,4.25
2023-01-04T19:28:25.327Z,4.05
2023-01-04T19:30:32.310Z,3.60
2023-01-04T19:32:42.799Z,2.78
2023-01-04T19:34:47.629Z,3.85
2023-01-04T19:36:52.653Z,3.30
2023-01-04T19:39:08.709Z,4.00
2023-01-04T19:41:26.382Z,4.05
2023-01-04T19:43:39.637Z,4.07
2023-01-04T19:45:43.128Z,3.70
2023-01-04T19:47:46.967Z,3.40
2023-01-04T19:50:03.741Z,3.55
2023-01-04T19:52:06.579Z,3.92
2023-01-04T19:54:09.160Z,3.83
2023-01-04T19:56:15.407Z,3.33
2023-01-04T19:58:18.249Z,3.72
2023-01-04T20:00:20.881Z,3.67
2023-01-04T20:02:25.177Z,3.80
2023-01-04T20:04:28.459Z,4.03
2023-01-04T20:06:33.462Z,3.85
2023-01-04T20:08:37.660Z,3.47
2023-01-04T20:10:40.259Z,3.90
2023-01-04T20:12:46.009Z,3.63
2023-01-04T20:14:51.582Z,4.15
2023-01-04T20:16:54.877Z,3.33
2023-01-04T20:18:58.364Z,3.80
2023-01-04T20:21:02.939Z,3.15
2023-01-04T20:23:06.558Z,3.65
2023-01-04T20:25:11.112Z,4.00
2023-01-04T20:27:14.283Z,3.40
2023-01-04T20:29:17.321Z,3.70
2023-01-04T20:31:20.702Z,3.83
2023-01-04T20:33:23.561Z,4.07
2023-01-04T20:35:26.428Z,3.42
2023-01-04T20:37:45.583Z,3.55
2023-01-04T20:39:49.182Z,3.63
2023-01-04T20:42:09.848Z,3.65
2023-01-04T20:44:12.829Z,4.03
2023-01-04T20:46:18.463Z,4.15
2023-01-04T20:48:21.110Z,3.97
2023-01-04T20:50:23.736Z,3.67
2023-01-04T20:52:28.155Z,3.67
2023-01-04T20:54:30.418Z,3.97
2023-01-04T20:56:38.220Z,4.22
2023-01-04T20:58:40.748Z,3.80
2023-01-04T21:00:44.249Z,3.70
2023-01-04T21:02:46.877Z,3.70
2023-01-04T21:04:50.345Z,3.55
2023-01-04T21:06:53.405Z,3.20
2023-01-04T21:08:56.732Z,4.05
2023-01-04T21:10:59.866Z,3.30
2023-01-04T21:13:02.457Z,3.92
2023-01-04T21:15:05.122Z,3.60
2023-01-04T21:17:11.350Z,3.80
2023-01-04T21:19:14.627Z,3.83
2023-01-04T21:21:18.830Z,4.03
2023-01-04T21:23:28.806Z,3.33
2023-01-04T21:25:39.280Z,3.70
2023-01-04T21:27:44.071Z,3.92
2023-01-04T21:30:05.718Z,3.38
2023-01-04T21:34:36.135Z,3.28
2023-01-04T21:36:44.380Z,3.90
2023-01-04T21:38:50.798Z,3.45
2023-01-04T21:40:59.091Z,3.10
2023-01-04T21:43:28.519Z,3.45
2023-01-04T21:45:32.909Z,2.70
2023-01-04T21:47:36.197Z,3.47
2023-01-04T21:49:44.385Z,3.42
2023-01-04T21:51:48.305Z,3.55
2023-01-04T21:54:01.053Z,3.30
2023-01-04T21:56:16.521Z,3.25
2023-01-04T21:58:29.462Z,3.22
2023-01-04T22:00:49.106Z,3.10
2023-01-04T22:02:57.329Z,2.80
2023-01-04T22:05:02.383Z,3.00
2023-01-04T22:07:04.276Z,2.88
2023-01-04T22:09:26.403Z,3.75
2023-01-04T22:11:28.349Z,2.90
2023-01-04T22:13:30.695Z,2.80
2023-01-04T22:15:39.313Z,2.70
2023-01-04T22:17:42.501Z,3.10
2023-01-04T22:19:59.337Z,3.13
2023-01-04T22:22:04.119Z,2.88
2023-01-04T22:24:18.301Z,3.20
2023-01-04T22:26:22.787Z,2.90
2023-01-04T22:28:37.018Z,2.83
2023-01-04T22:30:44.620Z,2.95
2023-01-04T22:32:54.385Z,2.95
2023-01-04T22:34:58.388Z,2.97
2023-01-04T22:37:00.244Z,3.00
2023-01-04T22:39:02.275Z,2.90
2023-01-04T22:41:10.159Z,2.70
2023-01-04T22:43:12.098Z,2.72
2023-01-04T22:45:23.385Z,2.80
2023-01-04T22:47:26.300Z,2.42
2023-01-04T22:49:29.284Z,2.40
2023-01-04T22:51:32.310Z,2.65
2023-01-04T22:53:35.685Z,2.97
2023-01-04T22:56:17.135Z,2.70
2023-01-04T22:58:08.511Z,2.70
2023-01-04T23:00:12.060Z,2.55
2023-01-04T23:02:22.792Z,2.60
2023-01-04T23:04:24.754Z,2.90
2023-01-04T23:06:29.111Z,2.55
2023-01-04T23:08:32.882Z,2.75
2023-01-04T23:10:37.719Z,2.83
2023-01-04T23:12:39.657Z,2.95
2023-01-04T23:14:42.800Z,2.35
2023-01-04T23:16:45.546Z,2.35
2023-01-04T23:18:49.491Z,2.30
2023-01-04T23:21:01.117Z,2.53
2023-01-04T23:27:08.915Z,2.70
2023-01-04T23:29:16.667Z,2.72
2023-01-04T23:31:26.017Z,2.30
2023-01-04T23:33:35.661Z,2.47
2023-01-04T23:35:39.560Z,2.80
2023-01-04T23:37:41.392Z,2.65
2023-01-04T23:39:45.360Z,2.90
2023-01-04T23:41:48.368Z,2.42
2023-01-04T23:43:51.257Z,3.00
2023-01-04T23:45:54.250Z,2.60
2023-01-04T23:47:56.149Z,2.75
2023-01-04T23:49:59.007Z,3.03
2023-01-04T23:52:04.472Z,2.53
2023-01-04T23:54:09.200Z,2.67
2023-01-04T23:56:16.042Z,2.65
2023-01-04T23:58:18.056Z,2.50
